sensor_id;sensor_type;location;lat;lon;timestamp;temperature;humidity
16674;DHT22;8450;52.654;10.326;2023-04-25T04:47:48;5.80;99.90
16674;DHT22;8450;52.654;10.326;2023-04-25T04:50:33;5.80;99.90
16674;DHT22;8450;52.654;10.326;2023-04-25T04:53:18;5.70;99.90
16674;DHT22;8450;52.654;10.326;2023-04-25T04:56:04;5.70;99.90
16674;DHT22;8450;52.654;10.326;2023-04-25T04:58:53;5.70;99.90
16674;DHT22;8450;52.654;10.326;2023-04-25T05:01:32;5.70;99.90
16674;DHT22;8450;52.654;10.326;2023-04-25T05:04:20;5.70;99.90
16674;DHT22;8450;52.654;10.326;2023-04-25T05:06:59;5.70;99.90
16674;DHT22;8450;52.654;10.326;2023-04-25T05:09:44;5.70;99.90
16674;DHT22;8450;52.654;10.326;2023-04-25T05:12:10;5.70;99.90
16674;DHT22;8450;52.654;10.326;2023-04-25T05:14:48;5.70;99.90
16674;DHT22;8450;52.654;10.326;2023-04-25T05:17:32;5.70;99.90
16674;DHT22;8450;52.654;10.326;2023-04-25T05:20:16;5.80;99.90
16674;DHT22;8450;52.654;10.326;2023-04-25T05:23:19;5.80;99.90
16674;DHT22;8450;52.654;10.326;2023-04-25T05:26:10;5.70;99.90
16674;DHT22;8450;52.654;10.326;2023-04-25T05:28:50;5.80;99.90
16674;DHT22;8450;52.654;10.326;2023-04-25T05:31:48;5.70;99.90
16674;DHT22;8450;52.654;10.326;2023-04-25T05:34:15;5.80;99.90
16674;DHT22;8450;52.654;10.326;2023-04-25T05:36:53;5.80;99.90
16674;DHT22;8450;52.654;10.326;2023-04-25T05:39:19;5.80;99.90
16674;DHT22;8450;52.654;10.326;2023-04-25T05:42:04;5.70;99.90
16674;DHT22;8450;52.654;10.326;2023-04-25T05:45:01;5.70;99.90
16674;DHT22;8450;52.654;10.326;2023-04-25T05:47:51;5.70;99.90
16674;DHT22;8450;52.654;10.326;2023-04-25T05:50:21;5.80;99.90
16674;DHT22;8450;52.654;10.326;2023-04-25T05:52:55;5.80;99.90
16674;DHT22;8450;52.654;10.326;2023-04-25T05:55:28;5.80;99.90
16674;DHT22;8450;52.654;10.326;2023-04-25T05:57:54;5.80;99.90
16674;DHT22;8450;52.654;10.326;2023-04-25T06:00:21;5.80;99.90
16674;DHT22;8450;52.654;10.326;2023-04-25T06:02:48;5.90;99.90
16674;DHT22;8450;52.654;10.326;2023-04-25T06:05:14;5.90;99.90
16674;DHT22;8450;52.654;10.326;2023-04-25T06:07:40;5.90;99.90
16674;DHT22;8450;52.654;10.326;2023-04-25T06:10:06;6.00;99.90
16674;DHT22;8450;52.654;10.326;2023-04-25T06:12:32;6.00;99.90
16674;DHT22;8450;52.654;10.326;2023-04-25T06:15:00;6.10;99.90
16674;DHT22;8450;52.654;10.326;2023-04-25T06:17:25;6.10;99.90
16674;DHT22;8450;52.654;10.326;2023-04-25T06:19:51;6.20;99.90
16674;DHT22;8450;52.654;10.326;2023-04-25T06:22:17;6.20;99.90
16674;DHT22;8450;52.654;10.326;2023-04-25T06:24:43;6.30;99.90
16674;DHT22;8450;52.654;10.326;2023-04-25T06:27:09;6.40;99.90
16674;DHT22;8450;52.654;10.326;2023-04-25T06:29:34;6.50;99.90
16674;DHT22;8450;52.654;10.326;2023-04-25T06:32:00;6.60;99.90
16674;DHT22;8450;52.654;10.326;2023-04-25T06:34:26;6.70;99.90
16674;DHT22;8450;52.654;10.326;2023-04-25T06:36:51;6.80;99.90
16674;DHT22;8450;52.654;10.326;2023-04-25T06:39:17;6.80;99.90
16674;DHT22;8450;52.654;10.326;2023-04-25T06:41:43;6.90;99.90
16674;DHT22;8450;52.654;10.326;2023-04-25T06:44:27;6.90;99.90
16674;DHT22;8450;52.654;10.326;2023-04-25T06:46:54;7.00;99.90
16674;DHT22;8450;52.654;10.326;2023-04-25T06:49:20;7.00;99.90
16674;DHT22;8450;52.654;10.326;2023-04-25T06:51:45;7.10;99.90
16674;DHT22;8450;52.654;10.326;2023-04-25T06:54:11;7.10;99.90
16674;DHT22;8450;52.654;10.326;2023-04-25T06:56:44;7.10;99.90
16674;DHT22;8450;52.654;10.326;2023-04-25T06:59:13;7.20;99.90
16674;DHT22;8450;52.654;10.326;2023-04-25T07:01:40;7.30;99.90
16674;DHT22;8450;52.654;10.326;2023-04-25T07:04:11;7.40;99.90
16674;DHT22;8450;52.654;10.326;2023-04-25T07:06:42;7.50;99.90
16674;DHT22;8450;52.654;10.326;2023-04-25T07:09:09;7.60;99.90
16674;DHT22;8450;52.654;10.326;2023-04-25T07:11:38;7.70;99.90
16674;DHT22;8450;52.654;10.326;2023-04-25T07:14:04;7.70;99.90
16674;DHT22;8450;52.654;10.326;2023-04-25T07:16:30;7.80;99.90
16674;DHT22;8450;52.654;10.326;2023-04-25T07:18:57;7.90;99.90
16674;DHT22;8450;52.654;10.326;2023-04-25T07:21:22;7.90;99.90
16674;DHT22;8450;52.654;10.326;2023-04-25T07:23:50;8.00;99.90
16674;DHT22;8450;52.654;10.326;2023-04-25T07:26:20;8.10;99.90
16674;DHT22;8450;52.654;10.326;2023-04-25T07:29:04;8.20;99.90
16674;DHT22;8450;52.654;10.326;2023-04-25T07:31:30;8.20;99.90
16674;DHT22;8450;52.654;10.326;2023-04-25T07:33:57;8.30;99.90
16674;DHT22;8450;52.654;10.326;2023-04-25T07:36:22;8.30;99.90
16674;DHT22;8450;52.654;10.326;2023-04-25T07:38:48;8.30;99.90
16674;DHT22;8450;52.654;10.326;2023-04-25T07:41:13;8.30;99.90
16674;DHT22;8450;52.654;10.326;2023-04-25T07:43:40;8.40;99.90
16674;DHT22;8450;52.654;10.326;2023-04-25T07:46:06;8.40;99.90
16674;DHT22;8450;52.654;10.326;2023-04-25T07:48:33;8.40;99.90
16674;DHT22;8450;52.654;10.326;2023-04-25T07:50:59;8.50;99.90
16674;DHT22;8450;52.654;10.326;2023-04-25T07:53:24;8.50;99.90
16674;DHT22;8450;52.654;10.326;2023-04-25T07:55:56;8.60;99.90
16674;DHT22;8450;52.654;10.326;2023-04-25T07:58:22;8.70;99.90
16674;DHT22;8450;52.654;10.326;2023-04-25T08:00:51;8.80;99.90
16674;DHT22;8450;52.654;10.326;2023-04-25T08:03:35;8.90;99.90
16674;DHT22;8450;52.654;10.326;2023-04-25T08:06:04;9.00;99.90
16674;DHT22;8450;52.654;10.326;2023-04-25T08:08:33;9.10;99.90
16674;DHT22;8450;52.654;10.326;2023-04-25T08:10:58;9.20;99.90
16674;DHT22;8450;52.654;10.326;2023-04-25T08:13:25;9.40;99.90
16674;DHT22;8450;52.654;10.326;2023-04-25T08:15:52;9.50;99.90
16674;DHT22;8450;52.654;10.326;2023-04-25T08:18:18;9.60;99.90
16674;DHT22;8450;52.654;10.326;2023-04-25T08:20:45;9.70;99.90
16674;DHT22;8450;52.654;10.326;2023-04-25T08:23:12;9.90;99.90
16674;DHT22;8450;52.654;10.326;2023-04-25T08:25:46;10.00;99.90
16674;DHT22;8450;52.654;10.326;2023-04-25T08:28:14;10.10;99.90
16674;DHT22;8450;52.654;10.326;2023-04-25T08:30:40;10.20;99.90
16674;DHT22;8450;52.654;10.326;2023-04-25T08:33:09;10.30;99.90
16674;DHT22;8450;52.654;10.326;2023-04-25T08:35:55;10.30;99.90
16674;DHT22;8450;52.654;10.326;2023-04-25T08:38:21;10.20;99.90
16674;DHT22;8450;52.654;10.326;2023-04-25T08:40:50;10.20;99.90
16674;DHT22;8450;52.654;10.326;2023-04-25T08:43:19;10.20;99.90
16674;DHT22;8450;52.654;10.326;2023-04-25T08:45:46;10.20;99.90
16674;DHT22;8450;52.654;10.326;2023-04-25T08:48:35;10.10;99.90
16674;DHT22;8450;52.654;10.326;2023-04-25T08:51:02;10.10;99.90
16674;DHT22;8450;52.654;10.326;2023-04-25T08:53:30;10.10;99.90
16674;DHT22;8450;52.654;10.326;2023-04-25T08:55:59;10.20;99.90
16674;DHT22;8450;52.654;10.326;2023-04-25T08:58:25;10.30;99.90
16674;DHT22;8450;52.654;10.326;2023-04-25T09:00:51;10.30;99.90
16674;DHT22;8450;52.654;10.326;2023-04-25T09:03:20;10.30;99.90
16674;DHT22;8450;52.654;10.326;2023-04-25T09:05:49;10.40;99.90
16674;DHT22;8450;52.654;10.326;2023-04-25T09:08:15;10.40;99.90
16674;DHT22;8450;52.654;10.326;2023-04-25T09:10:41;10.40;99.90
16674;DHT22;8450;52.654;10.326;2023-04-25T09:13:10;10.50;99.90
16674;DHT22;8450;52.654;10.326;2023-04-25T09:15:57;10.40;99.90
16674;DHT22;8450;52.654;10.326;2023-04-25T09:18:47;10.40;99.90
16674;DHT22;8450;52.654;10.326;2023-04-25T09:21:13;10.40;99.90
16674;DHT22;8450;52.654;10.326;2023-04-25T09:23:47;10.30;99.90
16674;DHT22;8450;52.654;10.326;2023-04-25T09:26:15;10.20;99.90
16674;DHT22;8450;52.654;10.326;2023-04-25T09:28:43;10.20;99.90
16674;DHT22;8450;52.654;10.326;2023-04-25T09:31:12;10.10;99.90
16674;DHT22;8450;52.654;10.326;2023-04-25T09:33:46;10.00;99.90
16674;DHT22;8450;52.654;10.326;2023-04-25T09:36:11;9.90;99.90
16674;DHT22;8450;52.654;10.326;2023-04-25T09:38:55;9.90;99.90
16674;DHT22;8450;52.654;10.326;2023-04-25T09:41:26;9.80;99.90
16674;DHT22;8450;52.654;10.326;2023-04-25T09:43:57;9.80;99.90
16674;DHT22;8450;52.654;10.326;2023-04-25T09:46:32;9.80;99.90
16674;DHT22;8450;52.654;10.326;2023-04-25T09:48:57;9.80;99.90
16674;DHT22;8450;52.654;10.326;2023-04-25T09:51:33;9.80;99.90
16674;DHT22;8450;52.654;10.326;2023-04-25T09:53:59;9.90;99.90
16674;DHT22;8450;52.654;10.326;2023-04-25T09:56:38;9.90;99.90
16674;DHT22;8450;52.654;10.326;2023-04-25T09:59:07;10.10;99.90
16674;DHT22;8450;52.654;10.326;2023-04-25T10:01:36;10.20;99.90
16674;DHT22;8450;52.654;10.326;2023-04-25T10:04:11;10.40;99.90
16674;DHT22;8450;52.654;10.326;2023-04-25T10:06:59;10.60;99.90
16674;DHT22;8450;52.654;10.326;2023-04-25T10:09:26;10.70;99.90
16674;DHT22;8450;52.654;10.326;2023-04-25T10:11:53;10.80;99.90
16674;DHT22;8450;52.654;10.326;2023-04-25T10:14:19;10.90;99.90
16674;DHT22;8450;52.654;10.326;2023-04-25T10:16:47;10.90;99.90
16674;DHT22;8450;52.654;10.326;2023-04-25T10:19:13;11.00;99.90
16674;DHT22;8450;52.654;10.326;2023-04-25T10:22:02;10.90;99.90
16674;DHT22;8450;52.654;10.326;2023-04-25T10:24:28;10.90;99.90
16674;DHT22;8450;52.654;10.326;2023-04-25T10:26:55;10.80;99.90
16674;DHT22;8450;52.654;10.326;2023-04-25T10:29:23;10.80;99.90
16674;DHT22;8450;52.654;10.326;2023-04-25T10:31:49;10.70;99.90
16674;DHT22;8450;52.654;10.326;2023-04-25T10:34:16;10.80;99.90
16674;DHT22;8450;52.654;10.326;2023-04-25T10:36:42;10.70;99.90
16674;DHT22;8450;52.654;10.326;2023-04-25T10:39:08;10.60;99.90
16674;DHT22;8450;52.654;10.326;2023-04-25T10:41:48;10.60;99.90
16674;DHT22;8450;52.654;10.326;2023-04-25T10:44:17;10.50;99.90
16674;DHT22;8450;52.654;10.326;2023-04-25T10:46:44;10.50;99.90
16674;DHT22;8450;52.654;10.326;2023-04-25T10:49:10;10.50;99.90
16674;DHT22;8450;52.654;10.326;2023-04-25T10:51:37;10.50;99.90
16674;DHT22;8450;52.654;10.326;2023-04-25T10:54:04;10.40;99.90
16674;DHT22;8450;52.654;10.326;2023-04-25T10:56:38;10.30;99.90
16674;DHT22;8450;52.654;10.326;2023-04-25T10:59:14;10.30;99.90
16674;DHT22;8450;52.654;10.326;2023-04-25T11:01:42;10.30;99.90
16674;DHT22;8450;52.654;10.326;2023-04-25T11:04:23;10.20;99.90
16674;DHT22;8450;52.654;10.326;2023-04-25T11:07:05;10.20;99.90
16674;DHT22;8450;52.654;10.326;2023-04-25T11:09:38;10.10;99.90
16674;DHT22;8450;52.654;10.326;2023-04-25T11:12:04;10.10;99.90
16674;DHT22;8450;52.654;10.326;2023-04-25T11:14:30;10.00;99.90
16674;DHT22;8450;52.654;10.326;2023-04-25T11:16:57;10.00;99.90
16674;DHT22;8450;52.654;10.326;2023-04-25T11:19:24;10.10;99.90
16674;DHT22;8450;52.654;10.326;2023-04-25T11:21:50;10.10;99.90
16674;DHT22;8450;52.654;10.326;2023-04-25T11:24:16;10.20;99.90
16674;DHT22;8450;52.654;10.326;2023-04-25T11:26:43;10.20;99.90
16674;DHT22;8450;52.654;10.326;2023-04-25T11:29:09;10.30;99.90
16674;DHT22;8450;52.654;10.326;2023-04-25T11:31:35;10.40;99.90
16674;DHT22;8450;52.654;10.326;2023-04-25T11:34:00;10.60;99.90
16674;DHT22;8450;52.654;10.326;2023-04-25T11:36:26;10.80;99.90
16674;DHT22;8450;52.654;10.326;2023-04-25T11:38:53;11.10;99.90
16674;DHT22;8450;52.654;10.326;2023-04-25T11:41:20;11.30;99.90
16674;DHT22;8450;52.654;10.326;2023-04-25T11:43:47;11.50;99.90
16674;DHT22;8450;52.654;10.326;2023-04-25T11:46:14;11.70;99.90
16674;DHT22;8450;52.654;10.326;2023-04-25T11:48:41;11.80;99.90
16674;DHT22;8450;52.654;10.326;2023-04-25T11:51:07;11.90;99.90
16674;DHT22;8450;52.654;10.326;2023-04-25T11:53:33;11.90;99.90
16674;DHT22;8450;52.654;10.326;2023-04-25T11:55:58;12.10;99.90
16674;DHT22;8450;52.654;10.326;2023-04-25T11:58:25;12.20;99.90
16674;DHT22;8450;52.654;10.326;2023-04-25T12:00:50;12.20;99.90
16674;DHT22;8450;52.654;10.326;2023-04-25T12:03:17;12.20;99.90
16674;DHT22;8450;52.654;10.326;2023-04-25T12:05:44;12.10;99.90
16674;DHT22;8450;52.654;10.326;2023-04-25T12:08:14;12.00;99.90
16674;DHT22;8450;52.654;10.326;2023-04-25T12:10:42;11.90;99.90
16674;DHT22;8450;52.654;10.326;2023-04-25T12:13:24;11.80;99.90
16674;DHT22;8450;52.654;10.326;2023-04-25T12:15:51;11.70;99.90
16674;DHT22;8450;52.654;10.326;2023-04-25T12:18:35;11.60;99.90
16674;DHT22;8450;52.654;10.326;2023-04-25T12:21:01;11.60;99.90
16674;DHT22;8450;52.654;10.326;2023-04-25T12:23:29;11.50;99.90
16674;DHT22;8450;52.654;10.326;2023-04-25T12:25:55;11.60;99.90
16674;DHT22;8450;52.654;10.326;2023-04-25T12:28:23;11.60;99.90
16674;DHT22;8450;52.654;10.326;2023-04-25T12:30:59;11.70;99.90
16674;DHT22;8450;52.654;10.326;2023-04-25T12:33:27;11.90;99.90
16674;DHT22;8450;52.654;10.326;2023-04-25T12:35:53;12.20;99.90
16674;DHT22;8450;52.654;10.326;2023-04-25T12:40:48;12.50;99.90
16674;DHT22;8450;52.654;10.326;2023-04-25T12:43:14;12.60;99.90
16674;DHT22;8450;52.654;10.326;2023-04-25T12:45:39;12.60;99.90
16674;DHT22;8450;52.654;10.326;2023-04-25T12:48:05;12.70;99.90
16674;DHT22;8450;52.654;10.326;2023-04-25T12:50:31;12.70;99.90
16674;DHT22;8450;52.654;10.326;2023-04-25T12:52:56;12.70;99.90
16674;DHT22;8450;52.654;10.326;2023-04-25T12:55:22;12.70;99.90
16674;DHT22;8450;52.654;10.326;2023-04-25T12:57:48;12.70;99.90
16674;DHT22;8450;52.654;10.326;2023-04-25T13:00:14;12.60;99.90
16674;DHT22;8450;52.654;10.326;2023-04-25T13:02:40;12.70;99.90
16674;DHT22;8450;52.654;10.326;2023-04-25T13:05:06;12.70;99.90
16674;DHT22;8450;52.654;10.326;2023-04-25T13:07:32;12.70;99.90
16674;DHT22;8450;52.654;10.326;2023-04-25T13:09:58;12.70;99.90
16674;DHT22;8450;52.654;10.326;2023-04-25T13:12:24;12.70;99.90
16674;DHT22;8450;52.654;10.326;2023-04-25T13:14:49;12.70;99.90
16674;DHT22;8450;52.654;10.326;2023-04-25T13:17:15;12.70;99.90
16674;DHT22;8450;52.654;10.326;2023-04-25T13:19:41;12.80;99.90
16674;DHT22;8450;52.654;10.326;2023-04-25T13:22:06;12.90;99.90
16674;DHT22;8450;52.654;10.326;2023-04-25T13:24:32;13.00;99.90
16674;DHT22;8450;52.654;10.326;2023-04-25T13:26:57;13.00;99.90
16674;DHT22;8450;52.654;10.326;2023-04-25T13:29:23;13.10;99.90
16674;DHT22;8450;52.654;10.326;2023-04-25T13:31:48;13.10;99.90
16674;DHT22;8450;52.654;10.326;2023-04-25T13:34:14;13.20;99.90
16674;DHT22;8450;52.654;10.326;2023-04-25T13:36:40;13.20;99.90
16674;DHT22;8450;52.654;10.326;2023-04-25T13:39:05;13.30;99.90
16674;DHT22;8450;52.654;10.326;2023-04-25T13:41:31;13.40;99.90
16674;DHT22;8450;52.654;10.326;2023-04-25T13:43:57;13.60;99.90
16674;DHT22;8450;52.654;10.326;2023-04-25T13:46:22;13.60;99.90
16674;DHT22;8450;52.654;10.326;2023-04-25T13:48:48;13.70;99.90
16674;DHT22;8450;52.654;10.326;2023-04-25T13:51:16;13.60;99.90
16674;DHT22;8450;52.654;10.326;2023-04-25T13:53:43;13.40;99.90
16674;DHT22;8450;52.654;10.326;2023-04-25T13:56:09;13.20;99.90
16674;DHT22;8450;52.654;10.326;2023-04-25T13:58:36;13.00;99.90
16674;DHT22;8450;52.654;10.326;2023-04-25T14:01:02;12.70;99.90
16674;DHT22;8450;52.654;10.326;2023-04-25T14:03:28;12.50;99.90
16674;DHT22;8450;52.654;10.326;2023-04-25T14:05:54;12.40;99.90
16674;DHT22;8450;52.654;10.326;2023-04-25T14:08:20;12.10;99.90
16674;DHT22;8450;52.654;10.326;2023-04-25T14:10:46;11.90;99.90
16674;DHT22;8450;52.654;10.326;2023-04-25T14:13:11;11.70;99.90
16674;DHT22;8450;52.654;10.326;2023-04-25T14:15:37;11.50;99.90
16674;DHT22;8450;52.654;10.326;2023-04-25T14:18:02;11.30;99.90
16674;DHT22;8450;52.654;10.326;2023-04-25T14:20:28;11.20;99.90
16674;DHT22;8450;52.654;10.326;2023-04-25T14:22:54;11.10;99.90
16674;DHT22;8450;52.654;10.326;2023-04-25T14:25:22;11.00;99.90
16674;DHT22;8450;52.654;10.326;2023-04-25T14:27:47;11.00;99.90
16674;DHT22;8450;52.654;10.326;2023-04-25T14:30:16;11.00;99.90
16674;DHT22;8450;52.654;10.326;2023-04-25T14:32:42;11.00;99.90
16674;DHT22;8450;52.654;10.326;2023-04-25T14:35:08;11.10;99.90
16674;DHT22;8450;52.654;10.326;2023-04-25T14:37:34;11.20;99.90
16674;DHT22;8450;52.654;10.326;2023-04-25T14:39:59;11.30;99.90
16674;DHT22;8450;52.654;10.326;2023-04-25T14:42:25;11.30;99.90
16674;DHT22;8450;52.654;10.326;2023-04-25T14:44:51;11.40;99.90
16674;DHT22;8450;52.654;10.326;2023-04-25T14:47:16;11.50;99.90
16674;DHT22;8450;52.654;10.326;2023-04-25T14:49:42;11.50;99.90
16674;DHT22;8450;52.654;10.326;2023-04-25T14:52:07;11.50;99.90
16674;DHT22;8450;52.654;10.326;2023-04-25T14:54:33;11.60;99.90
16674;DHT22;8450;52.654;10.326;2023-04-25T14:56:58;11.70;99.90
16674;DHT22;8450;52.654;10.326;2023-04-25T14:59:24;11.70;99.90
16674;DHT22;8450;52.654;10.326;2023-04-25T15:01:50;11.80;99.90
16674;DHT22;8450;52.654;10.326;2023-04-25T15:04:16;11.90;99.90
16674;DHT22;8450;52.654;10.326;2023-04-25T15:06:42;12.10;99.90
16674;DHT22;8450;52.654;10.326;2023-04-25T15:09:09;12.20;99.90
16674;DHT22;8450;52.654;10.326;2023-04-25T15:11:36;12.30;99.90
16674;DHT22;8450;52.654;10.326;2023-04-25T15:14:02;12.30;99.90
16674;DHT22;8450;52.654;10.326;2023-04-25T15:16:27;12.40;99.90
16674;DHT22;8450;52.654;10.326;2023-04-25T15:18:53;12.40;99.90
16674;DHT22;8450;52.654;10.326;2023-04-25T15:21:18;12.40;99.90
16674;DHT22;8450;52.654;10.326;2023-04-25T15:23:44;12.40;99.90
16674;DHT22;8450;52.654;10.326;2023-04-25T15:26:10;12.20;99.90
16674;DHT22;8450;52.654;10.326;2023-04-25T15:28:36;12.10;99.90
16674;DHT22;8450;52.654;10.326;2023-04-25T15:31:01;12.10;99.90
16674;DHT22;8450;52.654;10.326;2023-04-25T15:33:27;12.00;99.90
16674;DHT22;8450;52.654;10.326;2023-04-25T15:35:52;12.00;99.90
16674;DHT22;8450;52.654;10.326;2023-04-25T15:38:18;12.00;99.90
16674;DHT22;8450;52.654;10.326;2023-04-25T15:40:44;12.00;99.90
16674;DHT22;8450;52.654;10.326;2023-04-25T15:43:10;12.00;99.90
16674;DHT22;8450;52.654;10.326;2023-04-25T15:45:40;12.00;99.90
16674;DHT22;8450;52.654;10.326;2023-04-25T15:48:05;12.00;99.90
16674;DHT22;8450;52.654;10.326;2023-04-25T15:50:32;12.10;99.90
16674;DHT22;8450;52.654;10.326;2023-04-25T15:52:57;12.10;99.90
16674;DHT22;8450;52.654;10.326;2023-04-25T15:55:23;12.10;99.90
16674;DHT22;8450;52.654;10.326;2023-04-25T15:57:51;12.10;99.90
16674;DHT22;8450;52.654;10.326;2023-04-25T16:00:17;12.10;99.90
16674;DHT22;8450;52.654;10.326;2023-04-25T16:02:44;12.10;99.90
16674;DHT22;8450;52.654;10.326;2023-04-25T16:05:11;12.00;99.90
16674;DHT22;8450;52.654;10.326;2023-04-25T16:07:38;12.00;99.90
16674;DHT22;8450;52.654;10.326;2023-04-25T16:10:04;11.90;99.90
16674;DHT22;8450;52.654;10.326;2023-04-25T16:12:30;11.90;99.90
16674;DHT22;8450;52.654;10.326;2023-04-25T16:14:56;11.80;99.90
16674;DHT22;8450;52.654;10.326;2023-04-25T16:17:23;11.70;99.90
16674;DHT22;8450;52.654;10.326;2023-04-25T16:19:48;11.70;99.90
16674;DHT22;8450;52.654;10.326;2023-04-25T16:22:17;11.70;99.90
16674;DHT22;8450;52.654;10.326;2023-04-25T16:24:43;11.60;99.90
16674;DHT22;8450;52.654;10.326;2023-04-25T16:27:09;11.50;99.90
16674;DHT22;8450;52.654;10.326;2023-04-25T16:29:35;11.40;99.90
16674;DHT22;8450;52.654;10.326;2023-04-25T16:32:00;11.30;99.90
16674;DHT22;8450;52.654;10.326;2023-04-25T16:34:26;11.30;99.90
16674;DHT22;8450;52.654;10.326;2023-04-25T16:36:53;11.20;99.90
16674;DHT22;8450;52.654;10.326;2023-04-25T16:39:18;11.10;99.90
16674;DHT22;8450;52.654;10.326;2023-04-25T16:41:46;11.10;99.90
16674;DHT22;8450;52.654;10.326;2023-04-25T16:44:12;10.90;99.90
16674;DHT22;8450;52.654;10.326;2023-04-25T16:46:38;10.90;99.90
16674;DHT22;8450;52.654;10.326;2023-04-25T16:49:03;10.90;99.90
16674;DHT22;8450;52.654;10.326;2023-04-25T16:51:29;10.80;99.90
16674;DHT22;8450;52.654;10.326;2023-04-25T16:53:55;10.80;99.90
16674;DHT22;8450;52.654;10.326;2023-04-25T16:56:20;10.60;99.90
16674;DHT22;8450;52.654;10.326;2023-04-25T16:58:47;10.60;99.90
16674;DHT22;8450;52.654;10.326;2023-04-25T17:01:13;10.50;99.90
16674;DHT22;8450;52.654;10.326;2023-04-25T17:03:41;10.40;99.90
16674;DHT22;8450;52.654;10.326;2023-04-25T17:06:09;10.30;99.90
16674;DHT22;8450;52.654;10.326;2023-04-25T17:08:34;10.30;99.90
16674;DHT22;8450;52.654;10.326;2023-04-25T17:11:00;10.20;99.90
16674;DHT22;8450;52.654;10.326;2023-04-25T17:13:26;10.10;99.90
16674;DHT22;8450;52.654;10.326;2023-04-25T17:15:52;10.00;99.90
16674;DHT22;8450;52.654;10.326;2023-04-25T17:18:17;9.90;99.90
16674;DHT22;8450;52.654;10.326;2023-04-25T17:20:43;9.90;99.90
16674;DHT22;8450;52.654;10.326;2023-04-25T17:23:08;9.80;99.90
16674;DHT22;8450;52.654;10.326;2023-04-25T17:25:34;9.70;99.90
16674;DHT22;8450;52.654;10.326;2023-04-25T17:28:00;9.70;99.90
16674;DHT22;8450;52.654;10.326;2023-04-25T17:30:25;9.70;99.90
16674;DHT22;8450;52.654;10.326;2023-04-25T17:32:51;9.60;99.90
16674;DHT22;8450;52.654;10.326;2023-04-25T17:35:17;9.50;99.90
16674;DHT22;8450;52.654;10.326;2023-04-25T17:37:43;9.50;99.90
16674;DHT22;8450;52.654;10.326;2023-04-25T17:40:10;9.40;99.90
16674;DHT22;8450;52.654;10.326;2023-04-25T17:42:37;9.40;99.90
16674;DHT22;8450;52.654;10.326;2023-04-25T17:45:03;9.30;99.90
16674;DHT22;8450;52.654;10.326;2023-04-25T17:47:29;9.20;99.90
16674;DHT22;8450;52.654;10.326;2023-04-25T17:49:54;9.20;99.90
16674;DHT22;8450;52.654;10.326;2023-04-25T17:52:21;9.10;99.90
16674;DHT22;8450;52.654;10.326;2023-04-25T17:54:46;9.10;99.90
16674;DHT22;8450;52.654;10.326;2023-04-25T17:57:12;9.00;99.90
16674;DHT22;8450;52.654;10.326;2023-04-25T17:59:38;9.00;99.90
16674;DHT22;8450;52.654;10.326;2023-04-25T18:02:03;8.90;99.90
16674;DHT22;8450;52.654;10.326;2023-04-25T18:04:29;8.90;99.90
